Aviation Digital Data Service (ADDS)

Output produced by METARs form (0558 UTC 18 January 2018)
found at http://www.aviationweather.gov/adds/metars/
 
METAR text: KVIH 180553Z AUTO 22010KT 10SM CLR M09/M14 A3045 RMK AO2 SLP331 T10941139 11083 21106 410561200 56017
Conditions at: KVIH (VICHY/ROLLA , MO, US) observed 0553 UTC 18 January 2018
Temperature: -9.4°C (15°F)
Dewpoint: -13.9°C (7°F) [RH = 70%]
Pressure (altimeter): 30.45 inches Hg (1031.2 mb)
[Sea-level pressure: 1033.1 mb]
Winds: from the SW (220 degrees) at 12 MPH (10 knots; 5.2 m/s)
Visibility: 10 or more miles (16+ km)
Ceiling: at least 12,000 feet AGL
Clouds: sky clear below 12,000 feet AGL
Weather: automated observation with no human augmentation;
there may or may not be significant weather present at this time